Aviation Digital Data Service (ADDS)

Output produced by METARs form (0048 UTC 06 December 2016)
found at http://www.aviationweather.gov/adds/metars/
 
KSAV 052353Z 04007KT 2SM BR OVC003 16/14 A2995 RMK AO2 SLP140 60009 T01560139 10167 20156 53009